Terminal Aerodrome Forecast
Issued by NWS Norman, OK

Home | Current Version | Previous Version | Text Only | Print | Product List | Glossary On
Versions: 1 2 3 4 5 6 7 8 9 10 11 12 13 14 15 16 17 18 19 20 21 22 23
000
FTUS44 KOUN 220527
TAFSPS
TAF
KSPS 220527Z 2206/2306 04009KT P6SM SCT080 BKN250
     FM221400 07010KT P6SM SCT100 BKN200
     FM230000 10007KT P6SM SCT100 BKN200=

USA.gov is the U.S. government's official web portal to all federal, state and local government web resources and services.